Time;durP1;ratioP1;P1;durP2;ratioP2;P2;SDS_P1;SDS_P2;PMS_P1;PMS_P2;Temp;Humidity;BMP_temperature;BMP_pressure;BME280_temperature;BME280_humidity;BME280_pressure;Samples;Min_cycle;Max_cycle;Signal;HPM_P1;HPM_P2
2022/08/17 00:01:44;;;;;;;16.75;14.28;;;;;;;22.23;60.05;100383.47;1646868;85;20958;-79
2022/08/17 00:04:29;;;;;;;14.35;12.82;;;;;;;22.16;60.03;100381.72;1687916;83;20931;-79
2022/08/17 00:07:14;;;;;;;18.42;13.50;;;;;;;22.15;60.15;100387.09;1696022;83;20930;-79
2022/08/17 00:09:59;;;;;;;14.45;12.98;;;;;;;22.10;60.29;100381.66;1650346;85;20907;-79
2022/08/17 00:12:45;;;;;;;15.20;13.38;;;;;;;22.07;60.35;100380.55;1693161;84;21505;-79
2022/08/17 00:15:29;;;;;;;14.58;12.35;;;;;;;22.02;60.44;100385.28;1695768;83;20942;-79
2022/08/17 00:18:15;;;;;;;14.68;12.93;;;;;;;21.99;60.50;100382.83;1696542;84;20927;-79
2022/08/17 00:21:02;;;;;;;13.10;11.88;;;;;;;21.95;60.61;100383.97;1695996;84;21439;-79
2022/08/17 00:23:47;;;;;;;13.40;12.10;;;;;;;21.91;60.74;100386.44;1697783;83;20958;-79
2022/08/17 00:26:32;;;;;;;18.87;13.25;;;;;;;;;;1690163;83;20914;-79
2022/08/17 00:29:17;;;;;;;15.13;13.72;;;;;;;21.88;60.89;100383.16;1695328;83;21447;-79
2022/08/17 00:32:02;;;;;;;14.68;13.15;;;;;;;21.87;61.02;100385.42;1696441;83;20962;-79
2022/08/17 00:34:48;;;;;;;15.40;13.80;;;;;;;21.85;61.03;100380.73;1696439;84;22004;-79
2022/08/17 00:37:32;;;;;;;19.15;12.90;;;;;;;21.82;61.12;100384.45;1695335;83;20912;-79
2022/08/17 00:40:18;;;;;;;15.55;12.93;;;;;;;21.80;61.18;100385.02;1693440;83;20919;-79
2022/08/17 00:43:20;;;;;;;14.65;13.25;;;;;;;21.82;61.28;100380.97;1699167;83;21590;-79
2022/08/17 00:46:13;;;;;;;14.78;13.43;;;;;;;21.80;61.25;100382.39;1694309;83;21474;-79
2022/08/17 00:48:59;;;;;;;15.25;13.48;;;;;;;21.76;61.36;100384.38;1689108;83;20926;-79
2022/08/17 00:51:58;;;;;;;15.68;13.03;;;;;;;21.72;61.49;100387.31;1688507;83;20918;-79
2022/08/17 00:54:47;;;;;;;17.70;14.68;;;;;;;21.67;61.53;100383.66;1686282;83;20949;-79
2022/08/17 00:57:43;;;;;;;18.75;13.72;;;;;;;21.69;61.67;100382.25;1689637;83;20898;-79
2022/08/17 01:00:33;;;;;;;15.90;13.00;;;;;;;21.70;61.77;100378.20;1689956;83;20954;-79
2022/08/17 01:03:24;;;;;;;14.35;13.00;;;;;;;21.69;61.72;100382.25;1688049;83;20920;-79
2022/08/17 01:06:10;;;;;;;15.43;13.38;;;;;;;21.69;61.86;100378.30;1685363;83;20942;-79
2022/08/17 01:08:58;;;;;;;20.95;13.93;;;;;;;21.70;61.86;100378.20;1687039;83;20931;-79
2022/08/17 01:11:44;;;;;;;15.45;13.93;;;;;;;21.68;62.01;100370.88;1684404;83;20974;-79
2022/08/17 01:14:29;;;;;;;14.90;13.43;;;;;;;21.65;61.99;100366.29;1687608;83;20958;-79
2022/08/17 01:17:14;;;;;;;15.45;13.00;;;;;;;21.61;62.06;100370.91;1679736;83;21434;-79
2022/08/17 01:19:59;;;;;;;12.65;11.45;;;;;;;21.56;62.19;100371.69;1683802;83;20906;-79
2022/08/17 01:22:44;;;;;;;10.82;9.73;;;;;;;21.50;62.16;100366.81;1686679;83;21414;-79
2022/08/17 01:25:30;;;;;;;11.80;10.60;;;;;;;21.42;62.17;100366.00;1687020;83;20939;-79
2022/08/17 01:28:15;;;;;;;12.53;11.43;;;;;;;21.37;62.23;100372.50;1685244;83;20926;-80
2022/08/17 01:31:03;;;;;;;11.83;10.40;;;;;;;21.28;62.25;100366.08;1684995;83;20965;-80
2022/08/17 01:33:48;;;;;;;12.23;11.05;;;;;;;21.24;62.36;100372.47;1686420;83;20966;-79
2022/08/17 01:36:34;;;;;;;14.60;12.88;;;;;;;21.23;62.43;100368.63;1685433;83;21439;-79
2022/08/17 01:39:30;;;;;;;14.18;10.93;;;;;;;21.20;62.46;100368.32;1686083;83;20954;-79
2022/08/17 01:42:34;;;;;;;13.03;11.93;;;;;;;21.17;62.52;100367.67;1687013;83;20934;-79
2022/08/17 01:45:30;;;;;;;14.60;11.90;;;;;;;21.10;62.60;100369.84;1686089;83;20918;-79
2022/08/17 01:48:18;;;;;;;12.88;11.53;;;;;;;21.03;62.68;100374.65;1685433;83;20925;-79
2022/08/17 01:51:06;;;;;;;12.88;11.50;;;;;;;20.98;62.73;100368.83;1672835;82;20973;-79
2022/08/17 01:53:56;;;;;;;15.13;13.53;;;;;;;20.96;62.84;100364.61;1696459;83;21303;-79
2022/08/17 01:56:45;;;;;;;15.28;13.15;;;;;;;20.97;62.89;100362.36;1693843;83;20918;-79
2022/08/17 01:59:30;;;;;;;11.95;10.80;;;;;;;20.99;62.94;100363.11;1690076;83;21380;-79
2022/08/17 02:02:16;;;;;;;13.13;11.78;;;;;;;20.96;62.94;100364.61;1680737;83;20946;-79
2022/08/17 02:05:01;;;;;;;12.75;11.57;;;;;;;20.89;62.96;100358.05;1694654;83;438062;-79
2022/08/17 02:07:46;;;;;;;12.23;11.12;;;;;;;20.82;63.07;100358.91;1706935;82;20992;-79
2022/08/17 02:10:32;;;;;;;11.70;10.58;;;;;;;20.80;63.10;100364.25;1706682;82;21572;-79
2022/08/17 02:13:18;;;;;;;14.85;11.20;;;;;;;20.75;63.16;100358.95;1707032;82;20909;-79
2022/08/17 02:16:03;;;;;;;10.00;8.95;;;;;;;20.71;63.10;100361.39;1705197;82;20941;-79
2022/08/17 02:18:48;;;;;;;13.45;12.13;;;;;;;20.63;63.11;100365.80;1704811;82;21429;-79
2022/08/17 02:21:33;;;;;;;13.83;12.43;;;;;;;20.57;63.23;100361.39;1707304;82;20917;-79
2022/08/17 02:24:26;;;;;;;13.75;12.07;;;;;;;20.56;63.32;100360.55;1706987;82;20953;-79
2022/08/17 02:27:11;;;;;;;13.15;11.05;;;;;;;20.57;63.35;100360.08;1706067;82;20963;-79
2022/08/17 02:29:56;;;;;;;13.13;10.93;;;;;;;20.52;63.31;100362.14;1707469;82;20953;-79
2022/08/17 02:32:41;;;;;;;11.60;10.50;;;;;;;20.46;63.49;100361.58;1707314;82;20894;-79
2022/08/17 02:35:26;;;;;;;10.78;9.93;;;;;;;20.45;63.49;100360.35;1706039;82;20897;-79
2022/08/17 02:38:12;;;;;;;11.25;10.15;;;;;;;20.38;63.54;100355.94;1707026;83;20945;-79
2022/08/17 02:40:57;;;;;;;12.78;11.48;;;;;;;20.39;63.57;100355.47;1706209;82;20953;-79
2022/08/17 02:43:42;;;;;;;13.55;12.33;;;;;;;20.36;63.64;100355.16;1708000;82;20913;-79
2022/08/17 02:46:29;;;;;;;12.55;11.25;;;;;;;20.35;63.62;100363.97;1707297;82;20937;-79
2022/08/17 02:49:14;;;;;;;10.80;9.80;;;;;;;20.29;63.68;100365.66;1707374;82;20898;-79
2022/08/17 02:52:04;;;;;;;11.97;10.75;;;;;;;20.23;63.78;100371.30;1702677;82;20976;-79
2022/08/17 02:54:49;;;;;;;12.70;11.45;;;;;;;20.21;63.89;100372.33;1703837;82;21080;-79
2022/08/17 02:57:35;;;;;;;12.07;10.38;;;;;;;20.21;63.93;100371.02;1704794;82;21041;-79
2022/08/17 03:00:27;;;;;;;12.07;10.90;;;;;;;20.16;63.95;100369.98;1704935;82;21085;-79
2022/08/17 03:03:17;;;;;;;12.65;11.30;;;;;;;20.14;64.00;100373.16;1700912;83;21005;-79
2022/08/17 03:06:02;;;;;;;12.53;11.43;;;;;;;20.09;64.05;100373.91;1706276;82;21044;-79
2022/08/17 03:08:47;;;;;;;10.75;9.80;;;;;;;20.09;64.16;100376.06;1703755;82;22336;-79
2022/08/17 03:11:32;;;;;;;9.05;8.35;;;;;;;20.09;64.14;100377.84;1701059;83;20961;-79
2022/08/17 03:14:19;;;;;;;9.65;8.83;;;;;;;20.06;64.13;100382.80;1697941;83;21036;-79
2022/08/17 03:17:04;;;;;;;10.25;9.43;;;;;;;20.02;64.08;100377.35;1699107;83;21040;-79
2022/08/17 03:19:49;;;;;;;9.78;8.88;;;;;;;19.99;64.18;100383.25;1704305;82;21072;-79
2022/08/17 03:22:42;;;;;;;9.98;9.18;;;;;;;19.98;64.24;100382.87;1696276;82;21020;-79
2022/08/17 03:25:32;;;;;;;11.33;10.00;;;;;;;19.96;64.22;100387.37;1670368;83;21564;-79
2022/08/17 03:28:17;;;;;;;10.68;9.58;;;;;;;19.90;64.23;100387.25;1650176;85;20911;-79
2022/08/17 03:31:02;;;;;;;10.82;9.83;;;;;;;19.89;64.31;100386.88;1644528;86;20939;-79
2022/08/17 03:33:47;;;;;;;12.73;11.55;;;;;;;19.88;64.35;100385.19;1655805;85;20963;-79
2022/08/17 03:36:32;;;;;;;12.65;11.33;;;;;;;19.87;64.38;100384.80;1648262;85;21427;-79
2022/08/17 03:39:17;;;;;;;12.43;11.22;;;;;;;19.84;64.41;100381.89;1653944;84;20918;-79
2022/08/17 03:42:16;;;;;;;12.60;11.40;;;;;;;19.79;64.48;100387.88;1653976;85;20918;-79
2022/08/17 03:45:02;;;;;;;12.30;11.05;;;;;;;19.78;64.56;100386.19;1648394;85;20942;-79
2022/08/17 03:57:08;;;;;;;13.22;11.05;;;;;;;19.61;64.72;100406.01;1707301;82;20917;-79
2022/08/17 03:59:55;;;;;;;10.18;9.20;;;;;;;19.64;64.83;100404.98;1703729;82;20897;-79
2022/08/17 04:02:42;;;;;;;13.90;10.78;;;;;;;19.61;64.76;100401.23;1706083;82;20917;-79
2022/08/17 04:05:27;;;;;;;11.10;10.03;;;;;;;19.61;64.92;100403.38;1707532;82;20949;-79
2022/08/17 04:08:12;;;;;;;13.05;10.53;;;;;;;19.62;64.89;100411.63;1706325;82;20897;-79
2022/08/17 04:10:58;;;;;;;12.45;11.10;;;;;;;19.60;64.86;100413.50;1706465;82;21354;-79
2022/08/17 04:13:43;;;;;;;11.80;10.70;;;;;;;19.59;64.97;100416.20;1671543;84;20914;-79
2022/08/17 04:16:29;;;;;;;11.00;9.88;;;;;;;19.55;65.00;100419.94;1707513;82;20898;-79
2022/08/17 04:19:14;;;;;;;11.12;10.03;;;;;;;19.55;65.14;100419.94;1705902;82;20964;-79
2022/08/17 04:21:59;;;;;;;12.00;10.55;;;;;;;19.57;65.13;100418.06;1699295;82;21029;-79
2022/08/17 04:24:44;;;;;;;11.10;9.93;;;;;;;19.63;65.24;100419.87;1702341;82;21052;-79
2022/08/17 04:27:30;;;;;;;12.07;10.98;;;;;;;19.65;65.27;100420.64;1705199;82;21139;-79
2022/08/17 04:30:15;;;;;;;9.78;8.98;;;;;;;19.63;65.21;100421.19;1697786;82;21056;-79
2022/08/17 04:33:07;;;;;;;12.80;11.63;;;;;;;19.63;65.32;100419.03;1704857;82;21083;-79
2022/08/17 04:35:57;;;;;;;13.43;11.00;;;;;;;19.65;65.40;100432.45;1701140;82;21784;-79
2022/08/17 04:38:45;;;;;;;14.53;12.70;;;;;;;19.69;65.48;100429.19;1701982;82;21390;-79
2022/08/17 04:44:34;;;;;;;15.23;13.55;;;;;;;19.79;65.59;100429.86;1702006;83;21052;-79
2022/08/17 04:47:19;;;;;;;13.43;12.13;;;;;;;19.86;65.69;100430.81;1704329;82;22438;-79
2022/08/17 04:50:06;;;;;;;13.32;12.05;;;;;;;19.90;65.67;100427.93;1706644;82;21052;-79
2022/08/17 04:52:51;;;;;;;16.35;12.70;;;;;;;19.97;65.75;100421.86;1709196;82;20941;-79
2022/08/17 04:55:36;;;;;;;13.43;12.23;;;;;;;20.02;65.77;100435.10;1713174;82;20928;-79
2022/08/17 04:58:21;;;;;;;18.55;14.78;;;;;;;20.05;65.83;100426.20;1714408;82;20937;-79
2022/08/17 05:01:06;;;;;;;16.97;15.38;;;;;;;20.09;65.93;100443.47;1714321;82;21434;-79
2022/08/17 05:03:55;;;;;;;18.80;16.80;;;;;;;20.19;66.07;100443.31;1714001;82;20917;-79
2022/08/17 05:06:40;;;;;;;17.45;15.55;;;;;;;20.29;66.09;100446.21;1714766;82;20913;-79
2022/08/17 05:09:25;;;;;;;19.42;17.27;;;;;;;20.36;66.21;100441.82;1712960;82;21422;-79
2022/08/17 05:12:10;;;;;;;18.87;17.02;;;;;;;20.44;66.24;100440.94;1712612;82;21880;-79
2022/08/17 05:14:55;;;;;;;20.80;18.65;;;;;;;20.56;66.34;100448.55;1712865;82;20964;-79
2022/08/17 05:17:40;;;;;;;22.65;19.37;;;;;;;20.68;66.37;100450.91;1714990;82;20932;-79
2022/08/17 05:20:27;;;;;;;21.75;19.52;;;;;;;20.80;66.45;100454.92;1714995;82;20941;-79
2022/08/17 05:23:16;;;;;;;22.60;20.30;;;;;;;20.96;66.55;100453.52;1711919;82;20933;-79
2022/08/17 05:26:00;;;;;;;23.32;20.82;;;;;;;21.25;66.72;100453.53;1709209;82;20913;-79
2022/08/17 05:28:46;;;;;;;24.95;22.15;;;;;;;21.68;66.78;100454.25;1712935;82;20916;-79
2022/08/17 05:31:31;;;;;;;23.95;20.52;;;;;;;22.20;66.73;100457.42;1714003;82;21425;-79
2022/08/17 05:34:16;;;;;;;23.65;21.15;;;;;;;22.69;66.67;100460.20;1713822;82;20913;-79
2022/08/17 05:37:01;;;;;;;24.80;21.93;;;;;;;23.17;66.61;100458.58;1713459;82;20913;-79
2022/08/17 05:39:46;;;;;;;23.15;20.80;;;;;;;23.65;66.58;100452.89;1714941;82;20913;-79
2022/08/17 05:42:31;;;;;;;22.30;20.08;;;;;;;24.12;66.44;100456.44;1714087;82;20952;-79
2022/08/17 05:45:19;;;;;;;21.07;18.87;;;;;;;24.57;66.34;100464.02;1713658;82;20933;-79
2022/08/17 05:48:06;;;;;;;21.70;19.48;;;;;;;25.02;66.20;100464.06;1713852;82;20905;-79
2022/08/17 05:51:15;;;;;;;22.85;20.45;;;;;;;25.45;66.00;100464.15;1712384;82;20996;-79
2022/08/17 05:54:38;;;;;;;22.00;19.48;;;;;;;26.34;65.77;100464.31;1714841;82;21086;-79
2022/08/17 05:57:46;;;;;;;20.82;17.82;;;;;;;26.34;65.77;100464.31;1701739;82;21032;-79
2022/08/17 06:00:39;;;;;;;21.27;18.65;;;;;;;26.89;65.41;100466.21;1715639;82;21075;-79
2022/08/17 06:04:00;;;;;;;18.87;16.97;;;;;;;27.35;65.05;100463.03;1716264;82;21118;-79
2022/08/17 06:06:53;;;;;;;20.68;17.30;;;;;;;27.62;64.88;100465.05;1715684;82;21044;-79
2022/08/17 06:09:52;;;;;;;19.07;17.15;;;;;;;27.96;64.61;100462.36;1716700;82;21068;-78
2022/08/17 06:13:04;;;;;;;19.98;18.05;;;;;;;28.24;64.34;100460.67;1713719;82;21083;-78
2022/08/17 06:16:19;;;;;;;21.93;17.85;;;;;;;28.60;64.01;100455.53;1703209;82;21079;-78
2022/08/17 06:19:09;;;;;;;18.02;16.20;;;;;;;28.90;63.79;100463.31;1714960;83;21328;-78
2022/08/17 06:21:55;;;;;;;24.12;16.17;;;;;;;29.33;63.52;100462.66;1720007;82;20933;-78
2022/08/17 06:24:51;;;;;;;20.97;17.15;;;;;;;29.72;63.28;100470.91;1719082;82;20913;-78
2022/08/17 06:27:40;;;;;;;18.10;16.32;;;;;;;30.15;62.92;100471.52;1719114;82;20920;-78
2022/08/17 06:30:30;;;;;;;18.80;14.78;;;;;;;30.64;62.59;100471.88;1718057;81;21875;-79
2022/08/17 06:33:31;;;;;;;16.40;14.75;;;;;;;31.12;62.17;100473.95;1717950;82;20933;-79
2022/08/17 06:36:26;;;;;;;20.68;14.18;;;;;;;31.53;61.75;100469.09;1716674;81;21797;-79
2022/08/17 06:39:51;;;;;;;16.87;14.50;;;;;;;32.10;61.33;100472.34;1719370;82;20908;-79
2022/08/17 06:42:51;;;;;;;14.70;13.18;;;;;;;32.65;60.70;100470.29;1719130;82;21425;-79
2022/08/17 06:45:47;;;;;;;13.48;12.28;;;;;;;33.22;60.14;100473.63;1713981;81;21796;-79
2022/08/17 06:48:52;;;;;;;13.15;11.88;;;;;;;33.59;59.46;100477.45;1718160;82;20900;-79
2022/08/17 06:51:56;;;;;;;12.30;11.20;;;;;;;34.03;58.98;100481.68;1698745;82;20945;-79
2022/08/17 06:55:08;;;;;;;14.23;12.35;;;;;;;34.60;58.22;100477.14;1713219;82;20949;-79
2022/08/17 06:57:57;;;;;;;11.90;10.85;;;;;;;35.06;57.53;100477.80;1712613;82;20913;-79
2022/08/17 07:00:45;;;;;;;11.75;10.55;;;;;;;35.50;57.14;100479.91;1712612;82;21389;-79
2022/08/17 07:04:04;;;;;;;11.55;10.38;;;;;;;35.83;56.31;100478.13;1714397;82;21843;-79
2022/08/17 07:07:00;;;;;;;16.55;12.75;;;;;;;36.18;55.66;100483.59;1712718;82;20925;-79
2022/08/17 07:09:44;;;;;;;11.88;10.58;;;;;;;36.66;54.50;100487.28;1712514;82;20952;-79
2022/08/17 07:12:38;;;;;;;11.07;10.07;;;;;;;37.00;54.10;100479.70;1711529;82;20956;-78
2022/08/17 07:15:28;;;;;;;11.93;10.90;;;;;;;37.64;53.31;100482.02;1690907;82;21160;-78
2022/08/17 07:18:13;;;;;;;11.28;10.28;;;;;;;38.19;52.25;100481.40;1712786;82;21442;-78
2022/08/17 07:21:03;;;;;;;11.13;10.23;;;;;;;38.60;51.64;100481.16;1710817;82;21489;-79
2022/08/17 07:24:19;;;;;;;10.90;9.15;;;;;;;39.05;50.77;100487.48;1708135;82;20949;-79
2022/08/17 07:27:19;;;;;;;12.03;9.75;;;;;;;39.37;49.79;100497.87;1713886;82;20929;-79
2022/08/17 07:30:37;;;;;;;12.90;9.63;;;;;;;39.56;48.87;100499.64;1709935;82;21016;-79
2022/08/17 07:33:26;;;;;;;15.20;9.40;;;;;;;39.75;47.72;100497.04;1712597;82;20897;-79
2022/08/17 07:36:32;;;;;;;11.38;9.05;;;;;;;39.64;46.80;100493.98;1711930;82;20904;-79
2022/08/17 07:39:18;;;;;;;10.70;8.95;;;;;;;39.04;46.20;100493.42;1710792;82;20937;-79
2022/08/17 07:42:04;;;;;;;10.58;9.58;;;;;;;38.54;45.86;100497.66;1712443;82;21556;-79
2022/08/17 07:44:54;;;;;;;10.88;9.13;;;;;;;38.03;45.34;100491.54;1712390;82;20913;-80
2022/08/17 07:50:43;;;;;;;11.18;10.10;;;;;;;37.27;44.54;100490.96;1710155;81;21020;-80
2022/08/17 07:53:30;;;;;;;10.13;9.30;;;;;;;37.26;44.08;100491.16;1709328;82;21048;-78
2022/08/17 07:56:32;;;;;;;10.05;8.55;;;;;;;37.23;43.58;100495.61;1711008;82;21072;-78
2022/08/17 07:59:25;;;;;;;11.30;9.80;;;;;;;37.06;43.32;100497.78;1710726;82;21599;-79
2022/08/17 08:02:34;;;;;;;12.78;9.53;;;;;;;36.99;42.98;100491.52;1709373;82;21084;-80
2022/08/17 08:05:28;;;;;;;14.90;9.53;;;;;;;36.74;42.66;100494.72;1709605;82;21087;-79
2022/08/17 08:08:33;;;;;;;10.23;9.23;;;;;;;36.64;42.55;100500.11;1710504;82;21084;-80
2022/08/17 08:11:33;;;;;;;10.63;9.08;;;;;;;36.77;42.21;100496.19;1704211;82;21504;-79
2022/08/17 08:14:29;;;;;;;8.73;7.92;;;;;;;37.58;41.49;100500.38;1710073;82;21032;-79
2022/08/17 08:17:17;;;;;;;11.78;10.65;;;;;;;38.53;41.00;100499.22;1710653;82;21068;-79
2022/08/17 08:20:09;;;;;;;10.23;9.15;;;;;;;39.23;40.31;100503.86;1710349;82;21071;-79
2022/08/17 08:23:10;;;;;;;10.43;8.63;;;;;;;39.87;39.93;100506.95;1712059;82;20965;-80
2022/08/17 08:26:25;;;;;;;10.30;8.20;;;;;;;40.68;39.57;100506.06;1713178;82;20986;-81
2022/08/17 08:29:59;;;;;;;12.30;9.47;;;;;;;41.50;38.90;100503.88;1714651;82;20916;-81
2022/08/17 08:33:15;;;;;;;10.03;8.65;;;;;;;42.01;38.10;100503.86;1714007;82;20905;-82
2022/08/17 08:36:08;;;;;;;9.18;8.40;;;;;;;42.77;37.77;100502.41;1714899;80;20917;-81
2022/08/17 08:39:07;;;;;;;12.30;8.80;;;;;;;43.49;37.06;100508.81;1713370;82;20901;-81
2022/08/17 08:42:09;;;;;;;10.23;9.08;;;;;;;43.98;36.46;100511.87;1709441;82;20952;-80
2022/08/17 08:45:11;;;;;;;14.83;9.40;;;;;;;44.32;35.82;100517.61;1712526;82;20936;-80
2022/08/17 08:48:01;;;;;;;11.90;10.80;;;;;;;44.62;35.17;100512.36;1713391;82;20960;-81
2022/08/17 08:51:01;;;;;;;10.68;9.70;;;;;;;44.57;34.96;100514.47;1713363;82;21344;-80
2022/08/17 08:54:34;;;;;;;11.73;10.50;;;;;;;44.58;34.47;100511.20;1710266;82;21429;-80
2022/08/17 08:57:43;;;;;;;10.72;9.70;;;;;;;44.67;33.66;100512.43;1718704;82;20897;-80
2022/08/17 09:00:34;;;;;;;10.53;9.65;;;;;;;43.37;33.70;100503.95;1697054;82;20937;-80
2022/08/17 09:03:27;;;;;;;10.20;8.98;;;;;;;41.37;34.05;100497.27;1717892;82;21429;-79
2022/08/17 09:06:32;;;;;;;12.80;9.38;;;;;;;40.06;34.07;100506.52;1718394;82;20976;-79
2022/08/17 09:09:23;;;;;;;8.55;7.85;;;;;;;39.02;33.98;100496.03;1702822;82;21519;-79
2022/08/17 09:12:16;;;;;;;9.83;7.85;;;;;;;37.93;33.89;100491.14;1719040;82;20963;-78
2022/08/17 09:15:27;;;;;;;8.15;7.45;;;;;;;37.11;33.76;100492.10;1718955;82;20905;-78
2022/08/17 09:18:18;;;;;;;9.50;8.13;;;;;;;36.33;33.69;100489.24;1719711;82;21508;-78
2022/08/17 09:21:08;;;;;;;9.53;8.65;;;;;;;35.39;33.81;100484.95;1719493;82;20897;-78
2022/08/17 09:24:18;;;;;;;8.83;7.90;;;;;;;34.88;33.97;100480.87;1719129;81;20916;-78
2022/08/17 09:27:14;;;;;;;10.08;8.68;;;;;;;34.47;34.07;100481.80;1719207;81;20936;-78
2022/08/17 09:30:06;;;;;;;9.00;8.23;;;;;;;34.00;34.17;100478.02;1720073;82;21389;-78
2022/08/17 09:32:59;;;;;;;8.58;7.83;;;;;;;33.62;34.36;100480.62;1718963;82;20956;-78
2022/08/17 09:36:08;;;;;;;8.28;7.58;;;;;;;33.31;34.52;100471.73;1719533;81;20908;-78
2022/08/17 09:39:11;;;;;;;8.38;7.58;;;;;;;32.94;34.61;100472.39;1717577;81;20964;-78
2022/08/17 09:42:17;;;;;;;14.40;7.75;;;;;;;32.51;34.85;100468.64;1715544;81;20924;-78
2022/08/17 09:45:36;;;;;;;8.88;7.35;;;;;;;32.25;35.11;100475.52;1718273;81;20948;-78
2022/08/17 09:48:26;;;;;;;7.62;7.03;;;;;;;32.09;35.26;100468.83;1717671;81;20932;-78
2022/08/17 09:51:36;;;;;;;7.85;6.67;;;;;;;31.98;35.47;100466.48;1718937;82;20897;-78
2022/08/17 09:54:31;;;;;;;8.73;6.58;;;;;;;31.88;35.61;100463.14;1718706;82;20953;-77
2022/08/17 09:57:47;;;;;;;7.70;6.85;;;;;;;31.80;35.79;100459.11;1686683;83;21848;-78
2022/08/17 10:00:36;;;;;;;7.25;6.75;;;;;;;31.69;35.96;100455.45;1721819;81;20937;-78
2022/08/17 10:03:29;;;;;;;7.35;6.75;;;;;;;31.57;36.17;100451.72;1719855;81;21421;-78
2022/08/17 10:06:25;;;;;;;9.18;6.72;;;;;;;31.44;36.21;100457.20;1719623;81;20932;-77
2022/08/17 10:09:17;;;;;;;;;;;;;;;31.38;36.46;100457.35;1684397;83;20977;-78
2022/08/17 10:12:20;;;;;;;6.62;5.95;;;;;;;31.39;36.51;100460.36;1657669;84;20155;-78
2022/08/17 10:15:16;;;;;;;7.53;6.60;;;;;;;31.39;36.59;100452.84;1652981;85;21107;-79
2022/08/17 10:18:20;;;;;;;6.67;6.08;;;;;;;31.43;36.67;100449.68;1717670;81;21044;-80
2022/08/17 10:27:51;;;;;;;6.60;6.05;;;;;;;31.33;36.79;100457.00;1718864;81;21052;-80
2022/08/17 10:30:44;;;;;;;6.17;5.65;;;;;;;31.32;36.84;100451.31;1716675;81;21582;-80
2022/08/17 10:33:35;;;;;;;7.15;6.00;;;;;;;31.37;36.89;100451.66;1682085;83;21044;-80
2022/08/17 10:36:25;;;;;;;6.72;6.10;;;;;;;31.42;36.95;100444.00;1716530;81;21027;-79
2022/08/17 10:39:33;;;;;;;6.55;5.28;;;;;;;31.49;36.95;100448.19;1718279;81;21107;-80
2022/08/17 10:42:32;;;;;;;6.10;5.45;;;;;;;31.49;36.91;100445.02;1717092;81;21047;-80
2022/08/17 10:45:50;;;;;;;5.70;5.12;;;;;;;31.53;36.97;100442.36;1669754;81;21059;-80
2022/08/17 10:48:38;;;;;;;5.35;4.87;;;;;;;31.55;36.89;100447.03;1680225;83;21004;-80
2022/08/17 10:51:39;;;;;;;5.55;5.15;;;;;;;31.57;36.80;100458.41;1718248;82;21043;-80
2022/08/17 10:54:46;;;;;;;5.92;5.45;;;;;;;31.58;36.73;100451.22;1717333;81;21120;-80
2022/08/17 10:57:39;;;;;;;7.78;5.42;;;;;;;31.57;36.49;100460.24;1648251;85;21605;-80
2022/08/17 11:00:45;;;;;;;5.65;4.85;;;;;;;31.48;36.67;100455.88;1709476;82;21044;-80
2022/08/17 11:03:31;;;;;;;5.17;4.70;;;;;;;31.49;36.62;100450.86;1711090;82;21094;-80
2022/08/17 11:06:22;;;;;;;6.33;4.25;;;;;;;31.56;36.71;100454.05;1713025;80;21663;-80
2022/08/17 11:09:33;;;;;;;6.95;4.90;;;;;;;31.65;36.65;100446.89;1711419;82;21111;-80
2022/08/17 11:12:36;;;;;;;5.17;4.75;;;;;;;31.72;36.59;100452.41;1705354;82;21040;-81
2022/08/17 11:15:45;;;;;;;5.70;5.12;;;;;;;31.66;36.58;100451.73;1674751;83;21073;-81
2022/08/17 11:18:45;;;;;;;5.90;4.87;;;;;;;31.62;36.51;100455.73;1712558;82;20929;-79
2022/08/17 11:21:59;;;;;;;5.10;4.70;;;;;;;31.57;36.49;100453.55;1713070;82;20889;-79
2022/08/17 11:24:50;;;;;;;5.95;5.45;;;;;;;31.48;36.53;100450.03;1713560;82;20929;-80
2022/08/17 11:27:35;;;;;;;5.08;4.62;;;;;;;31.39;36.59;100458.19;1713527;82;21088;-80
2022/08/17 11:30:40;;;;;;;;;;;;;;;31.35;36.63;100453.66;1710847;82;21103;-80
2022/08/17 11:33:45;;;;;;;6.08;4.72;;;;;;;31.36;36.48;100445.15;1711734;82;20603;-81
2022/08/17 11:37:11;;;;;;;5.95;4.75;;;;;;;31.41;36.56;100442.83;1710851;82;21079;-80
2022/08/17 11:40:19;;;;;;;;;;;;;;;31.47;36.54;100451.53;1714241;82;21056;-80
2022/08/17 11:43:35;;;;;;;10.80;5.45;;;;;;;31.52;36.53;100455.88;1711663;82;20219;-81
2022/08/17 11:53:39;;;;;;;5.05;4.65;;;;;;;31.52;36.34;100429.16;1710750;82;21075;-81
2022/08/17 11:56:39;;;;;;;10.08;4.72;;;;;;;31.57;36.32;100430.84;1688168;82;21088;-80
2022/08/17 11:59:38;;;;;;;5.08;4.37;;;;;;;31.57;36.31;100430.34;1711561;82;20972;-81
2022/08/17 12:02:31;;;;;;;5.37;4.25;;;;;;;31.62;36.18;100425.83;1711288;82;21500;-80
2022/08/17 12:05:24;;;;;;;4.42;4.10;;;;;;;31.67;36.11;100428.01;1709802;82;21075;-80
2022/08/17 12:08:17;;;;;;;5.05;4.53;;;;;;;31.71;36.03;100420.86;1711248;82;21110;-80
2022/08/17 12:11:19;;;;;;;4.90;4.50;;;;;;;31.72;36.01;100418.99;1675317;82;21176;-81
2022/08/17 12:14:05;;;;;;;4.60;4.15;;;;;;;31.74;35.87;100415.66;1710535;82;21040;-81
2022/08/17 12:17:05;;;;;;;4.92;4.53;;;;;;;31.75;35.80;100416.83;1712407;82;21268;-81
2022/08/17 12:19:55;;;;;;;5.83;4.15;;;;;;;31.75;35.71;100420.00;1710105;82;21064;-80
2022/08/17 12:22:52;;;;;;;4.55;3.98;;;;;;;31.74;35.68;100416.48;1711741;82;21026;-80
2022/08/17 12:25:56;;;;;;;4.53;4.22;;;;;;;31.76;35.67;100419.00;1674518;82;21180;-80
2022/08/17 12:28:46;;;;;;;6.00;3.80;;;;;;;31.79;35.57;100417.33;1712576;82;21067;-80
2022/08/17 12:31:35;;;;;;;4.37;3.77;;;;;;;31.79;35.38;100415.98;1712487;82;22349;-80
2022/08/17 12:34:28;;;;;;;3.98;3.67;;;;;;;31.75;35.28;100414.16;1710729;82;21024;-80
2022/08/17 12:37:19;;;;;;;4.42;4.12;;;;;;;31.77;35.28;100412.14;1711173;82;21040;-81
2022/08/17 12:40:25;;;;;;;4.72;4.10;;;;;;;31.78;35.31;100411.14;1711221;82;21044;-80
2022/08/17 12:43:25;;;;;;;4.70;4.20;;;;;;;31.82;35.19;100415.16;1711242;82;21111;-80
2022/08/17 12:46:15;;;;;;;4.37;3.87;;;;;;;31.85;35.13;100409.48;1711804;82;21040;-80
2022/08/17 12:49:25;;;;;;;4.45;4.10;;;;;;;31.93;35.09;100409.98;1685687;83;21092;-80
2022/08/17 12:52:24;;;;;;;3.75;3.45;;;;;;;31.97;35.03;100409.98;1712117;82;21043;-81
2022/08/17 12:55:20;;;;;;;5.40;4.40;;;;;;;31.99;34.92;100412.48;1710779;82;21059;-81
2022/08/17 12:58:07;;;;;;;5.92;3.98;;;;;;;32.03;34.76;100412.48;1711581;82;21630;-81
2022/08/17 13:01:09;;;;;;;5.95;3.87;;;;;;;32.06;34.71;100412.15;1712637;82;21149;-81
2022/08/17 13:03:58;;;;;;;5.35;4.00;;;;;;;32.07;34.69;100403.13;1709401;82;21076;-82
2022/08/17 13:06:50;;;;;;;4.90;4.50;;;;;;;32.09;34.65;100408.64;1712086;82;21049;-78
2022/08/17 13:09:35;;;;;;;4.30;3.90;;;;;;;32.09;34.64;100401.11;1709907;82;21103;-78
2022/08/17 13:12:31;;;;;;;6.58;4.00;;;;;;;32.08;34.61;100400.78;1712830;82;20976;-78
2022/08/17 13:15:36;;;;;;;6.97;4.20;;;;;;;32.02;34.62;100402.28;1713245;82;21036;-78
2022/08/17 13:18:39;;;;;;;5.30;4.83;;;;;;;32.00;34.56;100402.95;1711079;82;21095;-78
2022/08/17 13:21:29;;;;;;;5.37;4.60;;;;;;;32.01;34.55;100397.11;1674257;84;21118;-78
2022/08/17 13:24:18;;;;;;;4.22;3.92;;;;;;;32.00;34.61;100390.08;1710482;82;21369;-78
2022/08/17 13:27:11;;;;;;;7.95;4.42;;;;;;;32.01;34.58;100395.27;1710796;82;21092;-77
2022/08/17 13:30:07;;;;;;;5.47;5.00;;;;;;;32.01;34.65;100395.27;1710880;82;21048;-78
2022/08/17 13:32:52;;;;;;;4.72;4.33;;;;;;;32.01;34.75;100399.78;1680739;84;21740;-79
2022/08/17 13:35:44;;;;;;;5.08;4.58;;;;;;;32.00;34.67;100394.94;1711615;82;21056;-79
2022/08/17 13:38:48;;;;;;;5.53;4.97;;;;;;;32.02;34.73;100390.75;1669245;84;21505;-79
2022/08/17 13:41:36;;;;;;;5.80;4.60;;;;;;;32.00;34.64;100395.44;1700852;82;339130;-79
2022/08/17 13:44:39;;;;;;;4.97;4.58;;;;;;;31.91;34.62;100394.59;1680785;84;20922;-79
2022/08/17 13:47:25;;;;;;;4.22;3.92;;;;;;;31.81;34.59;100391.26;1706442;82;20958;-79